sensor_id;sensor_type;location;lat;lon;timestamp;pressure;altitude;pressure_sealevel;temperature;humidity
71793;BME280;59639;51.170;6.456;2022-07-09T00:00:01;102288.50;;;19.52;57.54
71793;BME280;59639;51.170;6.456;2022-07-09T00:02:26;102284.66;;;19.47;57.77
71793;BME280;59639;51.170;6.456;2022-07-09T00:04:52;102285.66;;;19.46;58.13
71793;BME280;59639;51.170;6.456;2022-07-09T00:07:17;102275.34;;;19.33;58.59
71793;BME280;59639;51.170;6.456;2022-07-09T00:09:43;102280.25;;;19.38;58.17
71793;BME280;59639;51.170;6.456;2022-07-09T00:12:08;102274.03;;;19.37;58.27
71793;BME280;59639;51.170;6.456;2022-07-09T00:14:34;102273.72;;;19.48;57.89
71793;BME280;59639;51.170;6.456;2022-07-09T00:17:02;102275.03;;;19.36;58.19
71793;BME280;59639;51.170;6.456;2022-07-09T00:19:28;102270.72;;;19.59;57.41
71793;BME280;59639;51.170;6.456;2022-07-09T00:21:53;102266.69;;;19.63;57.39
71793;BME280;59639;51.170;6.456;2022-07-09T00:24:18;102259.31;;;19.57;57.34
71793;BME280;59639;51.170;6.456;2022-07-09T00:26:44;102259.91;;;19.43;57.67
71793;BME280;59639;51.170;6.456;2022-07-09T00:29:09;102263.28;;;19.21;58.65
71793;BME280;59639;51.170;6.456;2022-07-09T00:31:35;102258.38;;;19.08;59.31
71793;BME280;59639;51.170;6.456;2022-07-09T00:34:00;102259.72;;;19.04;59.45
71793;BME280;59639;51.170;6.456;2022-07-09T00:36:26;102258.91;;;19.12;59.22
71793;BME280;59639;51.170;6.456;2022-07-09T00:38:51;102255.25;;;19.37;58.38
71793;BME280;59639;51.170;6.456;2022-07-09T00:41:16;102259.94;;;19.35;58.33
71793;BME280;59639;51.170;6.456;2022-07-09T00:43:49;102256.22;;;19.12;59.46
71793;BME280;59639;51.170;6.456;2022-07-09T00:46:15;102257.91;;;19.29;58.52
71793;BME280;59639;51.170;6.456;2022-07-09T00:48:41;102253.75;;;19.43;57.80
71793;BME280;59639;51.170;6.456;2022-07-09T00:51:07;102247.47;;;19.18;58.29
71793;BME280;59639;51.170;6.456;2022-07-09T00:53:33;102251.34;;;19.15;59.10
71793;BME280;59639;51.170;6.456;2022-07-09T00:55:59;102244.78;;;19.18;58.88
71793;BME280;59639;51.170;6.456;2022-07-09T00:58:26;102250.84;;;19.20;59.00
71793;BME280;59639;51.170;6.456;2022-07-09T01:00:52;102244.28;;;19.06;59.56
71793;BME280;59639;51.170;6.456;2022-07-09T01:03:19;102242.47;;;19.15;59.19
71793;BME280;59639;51.170;6.456;2022-07-09T01:05:44;102242.66;;;19.21;58.96
71793;BME280;59639;51.170;6.456;2022-07-09T01:08:10;102250.50;;;19.15;58.96
71793;BME280;59639;51.170;6.456;2022-07-09T01:10:36;102240.63;;;19.15;58.62
71793;BME280;59639;51.170;6.456;2022-07-09T01:13:02;102247.63;;;19.08;58.48
71793;BME280;59639;51.170;6.456;2022-07-09T01:15:29;102241.13;;;19.03;58.68
71793;BME280;59639;51.170;6.456;2022-07-09T01:17:54;102243.75;;;18.95;58.75
71793;BME280;59639;51.170;6.456;2022-07-09T01:20:30;102243.94;;;19.01;58.42
71793;BME280;59639;51.170;6.456;2022-07-09T01:22:57;102246.13;;;18.98;58.50
71793;BME280;59639;51.170;6.456;2022-07-09T01:25:37;102238.53;;;18.93;59.14
71793;BME280;59639;51.170;6.456;2022-07-09T01:28:04;102240.06;;;18.96;58.69
71793;BME280;59639;51.170;6.456;2022-07-09T01:30:31;102235.75;;;19.03;58.71
71793;BME280;59639;51.170;6.456;2022-07-09T01:32:57;102235.00;;;18.84;59.58
71793;BME280;59639;51.170;6.456;2022-07-09T01:35:22;102233.38;;;18.91;59.09
71793;BME280;59639;51.170;6.456;2022-07-09T01:37:48;102239.38;;;18.85;59.35
71793;BME280;59639;51.170;6.456;2022-07-09T01:40:13;102228.00;;;18.91;59.33
71793;BME280;59639;51.170;6.456;2022-07-09T01:42:39;102230.53;;;19.01;58.91
71793;BME280;59639;51.170;6.456;2022-07-09T01:45:05;102232.53;;;18.91;59.36
71793;BME280;59639;51.170;6.456;2022-07-09T01:47:31;102226.66;;;18.87;59.12
71793;BME280;59639;51.170;6.456;2022-07-09T01:49:56;102229.31;;;18.79;59.66
71793;BME280;59639;51.170;6.456;2022-07-09T01:52:22;102217.72;;;18.79;59.45
71793;BME280;59639;51.170;6.456;2022-07-09T01:54:47;102221.94;;;18.81;59.63
71793;BME280;59639;51.170;6.456;2022-07-09T01:57:12;102214.06;;;18.88;59.60
71793;BME280;59639;51.170;6.456;2022-07-09T01:59:38;102213.91;;;18.89;59.40
71793;BME280;59639;51.170;6.456;2022-07-09T02:02:03;102220.75;;;18.84;59.46
71793;BME280;59639;51.170;6.456;2022-07-09T02:04:30;102214.91;;;18.80;59.91
71793;BME280;59639;51.170;6.456;2022-07-09T02:06:56;102216.75;;;18.88;59.60
71793;BME280;59639;51.170;6.456;2022-07-09T02:09:21;102215.75;;;18.81;60.05
71793;BME280;59639;51.170;6.456;2022-07-09T02:11:47;102214.94;;;18.97;59.17
71793;BME280;59639;51.170;6.456;2022-07-09T02:14:13;102209.38;;;18.90;59.12
71793;BME280;59639;51.170;6.456;2022-07-09T02:16:39;102205.72;;;18.99;59.02
71793;BME280;59639;51.170;6.456;2022-07-09T02:19:04;102204.16;;;18.88;59.65
71793;BME280;59639;51.170;6.456;2022-07-09T02:21:31;102199.44;;;18.74;60.04
71793;BME280;59639;51.170;6.456;2022-07-09T02:23:57;102203.28;;;18.64;60.16
71793;BME280;59639;51.170;6.456;2022-07-09T02:26:25;102195.53;;;18.53;60.94
71793;BME280;59639;51.170;6.456;2022-07-09T02:28:50;102200.03;;;18.52;60.73
71793;BME280;59639;51.170;6.456;2022-07-09T02:31:17;102190.22;;;18.61;60.33
71793;BME280;59639;51.170;6.456;2022-07-09T02:33:42;102200.28;;;18.75;59.76
71793;BME280;59639;51.170;6.456;2022-07-09T02:36:08;102200.44;;;18.65;60.06
71793;BME280;59639;51.170;6.456;2022-07-09T02:38:33;102203.59;;;18.61;59.86
71793;BME280;59639;51.170;6.456;2022-07-09T02:40:59;102201.53;;;18.46;60.53
71793;BME280;59639;51.170;6.456;2022-07-09T02:43:26;102198.00;;;18.46;60.74
71793;BME280;59639;51.170;6.456;2022-07-09T02:45:51;102198.59;;;18.58;60.32
71793;BME280;59639;51.170;6.456;2022-07-09T02:48:20;102197.84;;;18.47;60.76
71793;BME280;59639;51.170;6.456;2022-07-09T02:50:46;102200.69;;;18.46;60.35
71793;BME280;59639;51.170;6.456;2022-07-09T02:53:11;102200.72;;;18.54;60.31
71793;BME280;59639;51.170;6.456;2022-07-09T02:55:37;102199.84;;;18.45;60.50
71793;BME280;59639;51.170;6.456;2022-07-09T02:58:02;102203.66;;;18.35;61.17
71793;BME280;59639;51.170;6.456;2022-07-09T03:00:28;102208.50;;;18.31;61.34
71793;BME280;59639;51.170;6.456;2022-07-09T03:02:53;102201.81;;;18.35;61.17
71793;BME280;59639;51.170;6.456;2022-07-09T03:05:18;102204.81;;;18.32;61.48
71793;BME280;59639;51.170;6.456;2022-07-09T03:07:44;102204.94;;;18.23;61.71
71793;BME280;59639;51.170;6.456;2022-07-09T03:10:09;102194.25;;;18.31;61.19
71793;BME280;59639;51.170;6.456;2022-07-09T03:12:35;102188.34;;;18.19;61.89
71793;BME280;59639;51.170;6.456;2022-07-09T03:15:00;102192.69;;;18.20;61.86
71793;BME280;59639;51.170;6.456;2022-07-09T03:17:25;102192.19;;;18.17;61.93
71793;BME280;59639;51.170;6.456;2022-07-09T03:19:52;102185.16;;;18.16;62.16
71793;BME280;59639;51.170;6.456;2022-07-09T03:22:17;102183.72;;;18.03;62.74
71793;BME280;59639;51.170;6.456;2022-07-09T03:24:43;102186.66;;;18.18;61.97
71793;BME280;59639;51.170;6.456;2022-07-09T03:27:08;102181.59;;;18.07;62.65
71793;BME280;59639;51.170;6.456;2022-07-09T03:29:33;102188.78;;;18.06;62.54
71793;BME280;59639;51.170;6.456;2022-07-09T03:31:59;102182.78;;;18.13;62.42
71793;BME280;59639;51.170;6.456;2022-07-09T03:34:24;102178.59;;;18.18;62.42
71793;BME280;59639;51.170;6.456;2022-07-09T03:36:49;102183.31;;;18.24;62.31
71793;BME280;59639;51.170;6.456;2022-07-09T03:39:15;102182.59;;;18.06;63.01
71793;BME280;59639;51.170;6.456;2022-07-09T03:41:40;102187.00;;;17.89;63.56
71793;BME280;59639;51.170;6.456;2022-07-09T03:44:06;102181.66;;;17.63;64.44
71793;BME280;59639;51.170;6.456;2022-07-09T03:46:31;102185.28;;;17.80;63.99
71793;BME280;59639;51.170;6.456;2022-07-09T03:48:56;102176.84;;;17.93;63.36
71793;BME280;59639;51.170;6.456;2022-07-09T03:51:22;102180.13;;;17.87;63.70
71793;BME280;59639;51.170;6.456;2022-07-09T03:53:47;102183.00;;;17.93;63.45
71793;BME280;59639;51.170;6.456;2022-07-09T03:56:12;102184.38;;;17.97;62.81
71793;BME280;59639;51.170;6.456;2022-07-09T03:58:38;102179.50;;;17.93;63.35
71793;BME280;59639;51.170;6.456;2022-07-09T04:01:03;102184.06;;;17.75;63.96
71793;BME280;59639;51.170;6.456;2022-07-09T04:03:29;102171.94;;;17.88;63.55
71793;BME280;59639;51.170;6.456;2022-07-09T04:05:54;102174.59;;;17.88;63.16
71793;BME280;59639;51.170;6.456;2022-07-09T04:08:20;102180.75;;;17.81;63.89
71793;BME280;59639;51.170;6.456;2022-07-09T04:10:45;102187.59;;;17.75;63.77
71793;BME280;59639;51.170;6.456;2022-07-09T04:13:10;102188.06;;;17.71;64.14
71793;BME280;59639;51.170;6.456;2022-07-09T04:15:36;102187.34;;;17.86;63.91
71793;BME280;59639;51.170;6.456;2022-07-09T04:18:01;102187.63;;;17.57;64.57
71793;BME280;59639;51.170;6.456;2022-07-09T04:20:26;102185.25;;;17.72;64.21
71793;BME280;59639;51.170;6.456;2022-07-09T04:22:52;102198.53;;;17.82;63.76
71793;BME280;59639;51.170;6.456;2022-07-09T04:25:18;102190.63;;;18.06;63.45
71793;BME280;59639;51.170;6.456;2022-07-09T04:27:43;102185.06;;;17.99;63.72
71793;BME280;59639;51.170;6.456;2022-07-09T04:30:09;102188.44;;;18.01;63.78
71793;BME280;59639;51.170;6.456;2022-07-09T04:32:35;102194.91;;;17.99;63.58
71793;BME280;59639;51.170;6.456;2022-07-09T04:35:01;102185.78;;;17.84;64.49
71793;BME280;59639;51.170;6.456;2022-07-09T04:37:27;102189.63;;;17.81;64.87
71793;BME280;59639;51.170;6.456;2022-07-09T04:39:52;102194.38;;;17.87;64.52
71793;BME280;59639;51.170;6.456;2022-07-09T04:42:17;102192.69;;;17.86;64.77
71793;BME280;59639;51.170;6.456;2022-07-09T04:44:44;102191.03;;;17.93;64.78
71793;BME280;59639;51.170;6.456;2022-07-09T04:47:10;102189.56;;;17.99;64.76
71793;BME280;59639;51.170;6.456;2022-07-09T04:49:35;102191.31;;;17.82;65.62
71793;BME280;59639;51.170;6.456;2022-07-09T04:52:01;102200.34;;;17.81;65.73
71793;BME280;59639;51.170;6.456;2022-07-09T04:54:26;102199.44;;;17.98;65.09
71793;BME280;59639;51.170;6.456;2022-07-09T04:56:51;102198.69;;;18.14;64.66
71793;BME280;59639;51.170;6.456;2022-07-09T04:59:17;102203.75;;;18.17;64.61
71793;BME280;59639;51.170;6.456;2022-07-09T05:01:42;102200.75;;;18.28;64.01
71793;BME280;59639;51.170;6.456;2022-07-09T05:04:08;102211.03;;;18.33;64.21
71793;BME280;59639;51.170;6.456;2022-07-09T05:06:33;102206.78;;;18.22;64.42
71793;BME280;59639;51.170;6.456;2022-07-09T05:08:58;102205.94;;;18.22;64.32
71793;BME280;59639;51.170;6.456;2022-07-09T05:11:24;102202.41;;;18.21;64.58
71793;BME280;59639;51.170;6.456;2022-07-09T05:13:50;102200.94;;;18.27;64.35
71793;BME280;59639;51.170;6.456;2022-07-09T05:16:16;102206.66;;;18.32;64.21
71793;BME280;59639;51.170;6.456;2022-07-09T05:18:41;102214.09;;;18.12;65.13
71793;BME280;59639;51.170;6.456;2022-07-09T05:21:07;102205.31;;;18.28;64.38
71793;BME280;59639;51.170;6.456;2022-07-09T05:23:32;102203.63;;;18.27;64.91
71793;BME280;59639;51.170;6.456;2022-07-09T05:25:58;102198.13;;;18.36;64.50
71793;BME280;59639;51.170;6.456;2022-07-09T05:28:23;102196.66;;;18.42;64.64
71793;BME280;59639;51.170;6.456;2022-07-09T05:30:49;102194.97;;;18.49;64.31
71793;BME280;59639;51.170;6.456;2022-07-09T05:33:14;102196.47;;;18.43;64.43
71793;BME280;59639;51.170;6.456;2022-07-09T05:35:39;102194.47;;;18.45;64.62
71793;BME280;59639;51.170;6.456;2022-07-09T05:38:05;102193.88;;;18.60;63.95
71793;BME280;59639;51.170;6.456;2022-07-09T05:40:30;102195.72;;;18.59;64.25
71793;BME280;59639;51.170;6.456;2022-07-09T05:42:56;102208.47;;;18.57;64.66
71793;BME280;59639;51.170;6.456;2022-07-09T05:45:22;102204.94;;;18.57;64.11
71793;BME280;59639;51.170;6.456;2022-07-09T05:47:47;102204.97;;;18.65;64.14
71793;BME280;59639;51.170;6.456;2022-07-09T05:50:13;102209.34;;;18.74;63.79
71793;BME280;59639;51.170;6.456;2022-07-09T05:52:38;102208.50;;;18.73;63.80
71793;BME280;59639;51.170;6.456;2022-07-09T05:55:04;102214.03;;;18.72;64.15
71793;BME280;59639;51.170;6.456;2022-07-09T05:57:29;102202.88;;;18.92;63.30
71793;BME280;59639;51.170;6.456;2022-07-09T05:59:55;102211.25;;;19.06;62.16
71793;BME280;59639;51.170;6.456;2022-07-09T06:02:21;102202.69;;;19.18;61.93
71793;BME280;59639;51.170;6.456;2022-07-09T06:04:46;102201.38;;;19.14;62.26
71793;BME280;59639;51.170;6.456;2022-07-09T06:07:12;102193.16;;;19.24;61.25
71793;BME280;59639;51.170;6.456;2022-07-09T06:09:37;102192.81;;;19.35;61.11
71793;BME280;59639;51.170;6.456;2022-07-09T06:12:03;102190.66;;;19.22;60.99
71793;BME280;59639;51.170;6.456;2022-07-09T06:14:29;102192.84;;;19.27;60.75
71793;BME280;59639;51.170;6.456;2022-07-09T06:16:54;102190.19;;;19.51;60.60
71793;BME280;59639;51.170;6.456;2022-07-09T06:19:20;102188.47;;;19.42;59.63
71793;BME280;59639;51.170;6.456;2022-07-09T06:21:46;102185.47;;;19.37;59.68
71793;BME280;59639;51.170;6.456;2022-07-09T06:24:12;102183.28;;;19.57;58.86
71793;BME280;59639;51.170;6.456;2022-07-09T06:26:37;102176.69;;;19.43;58.74
71793;BME280;59639;51.170;6.456;2022-07-09T06:29:03;102165.97;;;19.75;57.89
71793;BME280;59639;51.170;6.456;2022-07-09T06:31:31;102173.66;;;19.78;56.93
71793;BME280;59639;51.170;6.456;2022-07-09T06:33:57;102184.03;;;19.98;56.87
71793;BME280;59639;51.170;6.456;2022-07-09T06:36:23;102180.84;;;19.94;56.71
71793;BME280;59639;51.170;6.456;2022-07-09T06:38:49;102172.91;;;20.17;55.47
71793;BME280;59639;51.170;6.456;2022-07-09T06:41:33;102176.59;;;20.16;55.44
71793;BME280;59639;51.170;6.456;2022-07-09T06:43:58;102175.38;;;20.35;54.97
71793;BME280;59639;51.170;6.456;2022-07-09T06:46:23;102175.75;;;20.15;55.87
71793;BME280;59639;51.170;6.456;2022-07-09T06:48:49;102176.91;;;20.21;55.79
71793;BME280;59639;51.170;6.456;2022-07-09T06:51:14;102180.53;;;20.44;54.69
71793;BME280;59639;51.170;6.456;2022-07-09T06:53:39;102177.84;;;20.44;54.57
71793;BME280;59639;51.170;6.456;2022-07-09T06:56:05;102188.69;;;20.59;54.27
71793;BME280;59639;51.170;6.456;2022-07-09T06:58:30;102190.19;;;20.61;54.07
71793;BME280;59639;51.170;6.456;2022-07-09T07:00:56;102184.81;;;20.61;54.16
71793;BME280;59639;51.170;6.456;2022-07-09T07:03:21;102188.44;;;20.77;54.41
71793;BME280;59639;51.170;6.456;2022-07-09T07:05:47;102191.13;;;20.77;54.89
71793;BME280;59639;51.170;6.456;2022-07-09T07:08:12;102193.38;;;20.88;54.35
71793;BME280;59639;51.170;6.456;2022-07-09T07:10:37;102197.72;;;20.97;53.94
71793;BME280;59639;51.170;6.456;2022-07-09T07:13:03;102195.59;;;21.15;53.14
71793;BME280;59639;51.170;6.456;2022-07-09T07:15:28;102190.19;;;21.15;52.77
71793;BME280;59639;51.170;6.456;2022-07-09T07:17:53;102188.03;;;21.33;52.35
71793;BME280;59639;51.170;6.456;2022-07-09T07:20:19;102191.84;;;21.91;50.68
71793;BME280;59639;51.170;6.456;2022-07-09T07:22:48;102184.38;;;23.51;45.98
71793;BME280;59639;51.170;6.456;2022-07-09T07:25:13;102197.78;;;24.22;44.62
71793;BME280;59639;51.170;6.456;2022-07-09T07:27:39;102193.59;;;24.60;42.82
71793;BME280;59639;51.170;6.456;2022-07-09T07:30:04;102197.03;;;24.95;42.00
71793;BME280;59639;51.170;6.456;2022-07-09T07:32:30;102184.47;;;26.12;39.70
71793;BME280;59639;51.170;6.456;2022-07-09T07:34:55;102186.31;;;27.39;37.02
71793;BME280;59639;51.170;6.456;2022-07-09T07:37:21;102187.13;;;28.07;35.53
71793;BME280;59639;51.170;6.456;2022-07-09T07:39:46;102188.28;;;29.37;33.20
71793;BME280;59639;51.170;6.456;2022-07-09T07:42:13;102184.47;;;29.85;31.83
71793;BME280;59639;51.170;6.456;2022-07-09T07:44:38;102178.66;;;30.45;30.79
71793;BME280;59639;51.170;6.456;2022-07-09T07:47:04;102183.00;;;31.14;29.09
71793;BME280;59639;51.170;6.456;2022-07-09T07:49:29;102179.78;;;31.89;27.61
71793;BME280;59639;51.170;6.456;2022-07-09T07:51:55;102183.06;;;31.69;27.70
71793;BME280;59639;51.170;6.456;2022-07-09T07:54:20;102180.84;;;30.43;29.14
71793;BME280;59639;51.170;6.456;2022-07-09T07:56:45;102174.97;;;31.07;28.81
71793;BME280;59639;51.170;6.456;2022-07-09T07:59:11;102178.47;;;30.34;29.29
71793;BME280;59639;51.170;6.456;2022-07-09T08:01:36;102179.59;;;31.40;27.61
71793;BME280;59639;51.170;6.456;2022-07-09T08:04:02;102173.94;;;29.88;30.12
71793;BME280;59639;51.170;6.456;2022-07-09T08:06:27;102169.44;;;29.36;31.29
71793;BME280;59639;51.170;6.456;2022-07-09T08:08:53;102169.69;;;28.63;32.70
71793;BME280;59639;51.170;6.456;2022-07-09T08:11:18;102169.38;;;28.23;33.43
71793;BME280;59639;51.170;6.456;2022-07-09T08:13:44;102163.47;;;28.74;32.79
71793;BME280;59639;51.170;6.456;2022-07-09T08:16:09;102154.53;;;28.97;32.25
71793;BME280;59639;51.170;6.456;2022-07-09T08:18:34;102150.44;;;29.76;30.82
71793;BME280;59639;51.170;6.456;2022-07-09T08:21:00;102157.44;;;29.95;30.96
71793;BME280;59639;51.170;6.456;2022-07-09T08:23:25;102154.47;;;30.48;29.54
71793;BME280;59639;51.170;6.456;2022-07-09T08:25:50;102159.75;;;31.83;27.84
71793;BME280;59639;51.170;6.456;2022-07-09T08:28:16;102163.19;;;32.87;25.44
71793;BME280;59639;51.170;6.456;2022-07-09T08:30:41;102157.75;;;33.24;25.06
71793;BME280;59639;51.170;6.456;2022-07-09T08:33:07;102162.22;;;34.25;24.08
71793;BME280;59639;51.170;6.456;2022-07-09T08:35:33;102166.47;;;34.98;23.03
71793;BME280;59639;51.170;6.456;2022-07-09T08:37:58;102163.78;;;33.63;24.46
71793;BME280;59639;51.170;6.456;2022-07-09T08:40:25;102152.38;;;34.49;23.24
71793;BME280;59639;51.170;6.456;2022-07-09T08:42:53;102149.38;;;34.61;23.39
71793;BME280;59639;51.170;6.456;2022-07-09T08:45:20;102150.38;;;32.18;25.09
71793;BME280;59639;51.170;6.456;2022-07-09T08:47:46;102145.19;;;31.78;26.53
71793;BME280;59639;51.170;6.456;2022-07-09T08:50:12;102144.69;;;31.64;25.79
71793;BME280;59639;51.170;6.456;2022-07-09T08:52:39;102140.53;;;31.23;27.04
71793;BME280;59639;51.170;6.456;2022-07-09T08:55:05;102141.19;;;29.19;30.35
71793;BME280;59639;51.170;6.456;2022-07-09T08:57:32;102120.66;;;29.74;29.73
71793;BME280;59639;51.170;6.456;2022-07-09T09:00:00;102126.09;;;32.26;25.63
71793;BME280;59639;51.170;6.456;2022-07-09T09:02:26;102119.22;;;32.02;25.83
71793;BME280;59639;51.170;6.456;2022-07-09T09:04:54;102113.97;;;30.90;28.34
71793;BME280;59639;51.170;6.456;2022-07-09T09:07:19;102111.34;;;29.47;29.09
71793;BME280;59639;51.170;6.456;2022-07-09T09:09:46;102109.06;;;29.67;28.72
71793;BME280;59639;51.170;6.456;2022-07-09T09:12:13;102106.59;;;30.17;28.93
71793;BME280;59639;51.170;6.456;2022-07-09T09:14:39;102105.69;;;31.74;26.76
71793;BME280;59639;51.170;6.456;2022-07-09T09:17:08;102102.00;;;32.55;25.63
71793;BME280;59639;51.170;6.456;2022-07-09T09:19:39;102101.63;;;32.73;24.83
71793;BME280;59639;51.170;6.456;2022-07-09T09:22:06;102098.56;;;33.81;24.10
71793;BME280;59639;51.170;6.456;2022-07-09T09:24:31;102090.06;;;33.82;24.19
71793;BME280;59639;51.170;6.456;2022-07-09T09:27:06;102100.34;;;32.54;25.35
71793;BME280;59639;51.170;6.456;2022-07-09T09:29:31;102095.81;;;32.97;25.05
71793;BME280;59639;51.170;6.456;2022-07-09T09:31:57;102090.34;;;32.97;24.79
71793;BME280;59639;51.170;6.456;2022-07-09T09:34:23;102090.75;;;33.15;24.41
71793;BME280;59639;51.170;6.456;2022-07-09T09:36:49;102089.88;;;32.78;25.18
71793;BME280;59639;51.170;6.456;2022-07-09T09:39:25;102087.63;;;32.16;26.17
71793;BME280;59639;51.170;6.456;2022-07-09T09:41:52;102083.50;;;31.92;26.29
71793;BME280;59639;51.170;6.456;2022-07-09T09:44:28;102097.47;;;30.40;29.17
71793;BME280;59639;51.170;6.456;2022-07-09T09:46:58;102100.28;;;30.57;28.81
71793;BME280;59639;51.170;6.456;2022-07-09T09:49:24;102084.50;;;29.67;30.73
71793;BME280;59639;51.170;6.456;2022-07-09T09:52:05;102092.91;;;29.89;29.73
71793;BME280;59639;51.170;6.456;2022-07-09T09:54:38;102084.13;;;30.55;28.54
71793;BME280;59639;51.170;6.456;2022-07-09T09:57:10;102070.72;;;31.37;27.74
71793;BME280;59639;51.170;6.456;2022-07-09T09:59:40;102075.44;;;32.29;26.31
71793;BME280;59639;51.170;6.456;2022-07-09T10:02:07;102076.34;;;32.39;26.50
71793;BME280;59639;51.170;6.456;2022-07-09T10:04:35;102075.88;;;32.74;25.76
71793;BME280;59639;51.170;6.456;2022-07-09T10:07:01;102072.66;;;32.02;27.37
71793;BME280;59639;51.170;6.456;2022-07-09T10:09:27;102064.25;;;31.27;28.16
71793;BME280;59639;51.170;6.456;2022-07-09T10:11:52;102071.44;;;30.49;29.66
71793;BME280;59639;51.170;6.456;2022-07-09T10:16:54;102063.09;;;29.99;29.95
71793;BME280;59639;51.170;6.456;2022-07-09T10:19:38;102065.00;;;28.71;32.66
71793;BME280;59639;51.170;6.456;2022-07-09T10:22:04;102067.97;;;29.34;31.81
71793;BME280;59639;51.170;6.456;2022-07-09T10:24:31;102064.25;;;29.40;31.82
71793;BME280;59639;51.170;6.456;2022-07-09T10:27:09;102045.66;;;29.02;31.97
71793;BME280;59639;51.170;6.456;2022-07-09T10:29:37;102056.63;;;28.72;32.71
71793;BME280;59639;51.170;6.456;2022-07-09T10:32:30;102057.00;;;28.87;32.27
71793;BME280;59639;51.170;6.456;2022-07-09T10:34:57;102045.31;;;28.98;32.30
71793;BME280;59639;51.170;6.456;2022-07-09T10:37:31;102058.75;;;28.29;33.65
71793;BME280;59639;51.170;6.456;2022-07-09T10:39:56;102055.38;;;27.97;34.37
71793;BME280;59639;51.170;6.456;2022-07-09T10:42:22;102053.78;;;28.37;34.29
71793;BME280;59639;51.170;6.456;2022-07-09T10:44:50;102048.91;;;27.61;35.34
71793;BME280;59639;51.170;6.456;2022-07-09T10:47:17;102039.53;;;27.94;35.39
71793;BME280;59639;51.170;6.456;2022-07-09T10:49:42;102040.22;;;27.89;35.21
71793;BME280;59639;51.170;6.456;2022-07-09T10:52:08;102031.66;;;28.34;34.40
71793;BME280;59639;51.170;6.456;2022-07-09T10:54:34;102029.75;;;29.22;33.06
71793;BME280;59639;51.170;6.456;2022-07-09T10:57:10;102031.88;;;29.20;33.13
71793;BME280;59639;51.170;6.456;2022-07-09T10:59:35;102022.53;;;29.28;32.53
71793;BME280;59639;51.170;6.456;2022-07-09T11:02:01;102027.03;;;28.87;33.08
71793;BME280;59639;51.170;6.456;2022-07-09T11:04:31;102017.81;;;28.88;33.03
71793;BME280;59639;51.170;6.456;2022-07-09T11:06:58;102018.03;;;28.87;32.77
71793;BME280;59639;51.170;6.456;2022-07-09T11:09:26;102028.25;;;28.50;33.42
71793;BME280;59639;51.170;6.456;2022-07-09T11:11:56;102020.19;;;28.43;33.46
71793;BME280;59639;51.170;6.456;2022-07-09T11:14:21;102020.78;;;28.34;32.97
71793;BME280;59639;51.170;6.456;2022-07-09T11:16:56;102002.56;;;28.46;33.17
71793;BME280;59639;51.170;6.456;2022-07-09T11:19:24;102013.53;;;28.28;33.75
71793;BME280;59639;51.170;6.456;2022-07-09T11:21:49;102014.56;;;27.97;35.07
71793;BME280;59639;51.170;6.456;2022-07-09T11:24:19;102018.81;;;27.93;35.13
71793;BME280;59639;51.170;6.456;2022-07-09T11:26:48;102019.81;;;27.44;35.53
71793;BME280;59639;51.170;6.456;2022-07-09T11:29:16;102017.38;;;27.17;36.10
71793;BME280;59639;51.170;6.456;2022-07-09T11:31:51;102013.97;;;27.22;36.00
71793;BME280;59639;51.170;6.456;2022-07-09T11:34:17;102010.75;;;26.64;37.41
71793;BME280;59639;51.170;6.456;2022-07-09T11:36:51;102003.34;;;26.71;37.37
71793;BME280;59639;51.170;6.456;2022-07-09T11:39:29;102007.75;;;26.40;38.06
71793;BME280;59639;51.170;6.456;2022-07-09T11:41:57;102014.09;;;26.34;38.43
71793;BME280;59639;51.170;6.456;2022-07-09T11:47:19;102003.16;;;26.41;38.42
71793;BME280;59639;51.170;6.456;2022-07-09T11:49:48;101998.59;;;26.91;37.60
71793;BME280;59639;51.170;6.456;2022-07-09T11:55:01;101989.00;;;27.13;37.49
71793;BME280;59639;51.170;6.456;2022-07-09T11:57:28;101991.56;;;26.59;38.26
71793;BME280;59639;51.170;6.456;2022-07-09T11:59:54;101988.50;;;26.48;38.49
71793;BME280;59639;51.170;6.456;2022-07-09T12:02:30;101985.78;;;26.17;39.45
71793;BME280;59639;51.170;6.456;2022-07-09T12:04:57;101982.88;;;26.12;39.79
71793;BME280;59639;51.170;6.456;2022-07-09T12:07:23;101983.47;;;26.77;38.73
71793;BME280;59639;51.170;6.456;2022-07-09T12:10:24;101971.72;;;27.44;37.75
71793;BME280;59639;51.170;6.456;2022-07-09T12:12:49;101968.06;;;26.95;38.84
71793;BME280;59639;51.170;6.456;2022-07-09T12:15:15;101964.78;;;26.62;39.77
71793;BME280;59639;51.170;6.456;2022-07-09T12:17:42;101966.66;;;26.37;40.34
71793;BME280;59639;51.170;6.456;2022-07-09T12:20:07;101974.16;;;26.10;40.40
71793;BME280;59639;51.170;6.456;2022-07-09T12:22:34;101974.69;;;25.87;41.43
71793;BME280;59639;51.170;6.456;2022-07-09T12:25:00;101971.22;;;25.74;42.39
71793;BME280;59639;51.170;6.456;2022-07-09T12:27:25;101975.44;;;25.56;44.87
71793;BME280;59639;51.170;6.456;2022-07-09T12:29:51;101974.03;;;25.41;44.12
71793;BME280;59639;51.170;6.456;2022-07-09T12:32:16;101976.63;;;24.76;46.06
71793;BME280;59639;51.170;6.456;2022-07-09T12:34:44;101971.44;;;24.68;46.32
71793;BME280;59639;51.170;6.456;2022-07-09T12:37:10;101973.28;;;24.61;47.93
71793;BME280;59639;51.170;6.456;2022-07-09T12:39:35;101974.75;;;24.37;49.62
71793;BME280;59639;51.170;6.456;2022-07-09T12:42:01;101974.78;;;24.44;49.28
71793;BME280;59639;51.170;6.456;2022-07-09T12:44:27;101990.75;;;24.19;49.45
71793;BME280;59639;51.170;6.456;2022-07-09T12:46:52;101998.72;;;23.86;52.74
71793;BME280;59639;51.170;6.456;2022-07-09T12:49:18;102000.25;;;23.95;51.16
71793;BME280;59639;51.170;6.456;2022-07-09T12:51:44;101986.06;;;23.80;51.52
71793;BME280;59639;51.170;6.456;2022-07-09T12:54:09;101980.66;;;23.80;53.42